sensor_id;sensor_type;location;lat;lon;timestamp;P1;durP1;ratioP1;P2;durP2;ratioP2
19569;SDS011;9931;51.458;7.256;2023-05-10T00:02:24;25.40;;;2.00;;
19569;SDS011;9931;51.458;7.256;2023-05-10T00:04:49;19.15;;;1.60;;
19569;SDS011;9931;51.458;7.256;2023-05-10T00:07:15;27.47;;;2.03;;
19569;SDS011;9931;51.458;7.256;2023-05-10T00:09:42;76.60;;;5.15;;
19569;SDS011;9931;51.458;7.256;2023-05-10T00:12:07;21.00;;;1.70;;
19569;SDS011;9931;51.458;7.256;2023-05-10T00:14:33;15.18;;;1.38;;
19569;SDS011;9931;51.458;7.256;2023-05-10T00:16:58;43.50;;;3.28;;
19569;SDS011;9931;51.458;7.256;2023-05-10T00:19:23;29.88;;;2.28;;
19569;SDS011;9931;51.458;7.256;2023-05-10T00:21:48;30.05;;;2.33;;
19569;SDS011;9931;51.458;7.256;2023-05-10T00:24:14;21.27;;;1.77;;
19569;SDS011;9931;51.458;7.256;2023-05-10T00:26:39;12.45;;;1.17;;
19569;SDS011;9931;51.458;7.256;2023-05-10T00:29:04;38.03;;;2.70;;
19569;SDS011;9931;51.458;7.256;2023-05-10T00:31:29;11.57;;;1.02;;
19569;SDS011;9931;51.458;7.256;2023-05-10T00:33:55;30.38;;;2.30;;
19569;SDS011;9931;51.458;7.256;2023-05-10T00:36:20;13.20;;;1.27;;
19569;SDS011;9931;51.458;7.256;2023-05-10T00:38:46;14.13;;;1.27;;
19569;SDS011;9931;51.458;7.256;2023-05-10T00:41:11;17.60;;;1.58;;
19569;SDS011;9931;51.458;7.256;2023-05-10T00:43:36;21.98;;;1.85;;
19569;SDS011;9931;51.458;7.256;2023-05-10T00:46:01;21.02;;;1.75;;
19569;SDS011;9931;51.458;7.256;2023-05-10T00:48:27;21.95;;;1.70;;
19569;SDS011;9931;51.458;7.256;2023-05-10T00:50:53;47.15;;;3.40;;
19569;SDS011;9931;51.458;7.256;2023-05-10T00:53:18;28.48;;;2.22;;
19569;SDS011;9931;51.458;7.256;2023-05-10T00:55:43;18.65;;;1.63;;
19569;SDS011;9931;51.458;7.256;2023-05-10T00:58:09;39.58;;;2.80;;
19569;SDS011;9931;51.458;7.256;2023-05-10T01:00:34;22.75;;;1.90;;
19569;SDS011;9931;51.458;7.256;2023-05-10T01:03:00;20.52;;;1.70;;
19569;SDS011;9931;51.458;7.256;2023-05-10T01:05:26;24.73;;;1.98;;
19569;SDS011;9931;51.458;7.256;2023-05-10T01:07:52;23.00;;;1.88;;
19569;SDS011;9931;51.458;7.256;2023-05-10T01:10:17;50.90;;;3.55;;
19569;SDS011;9931;51.458;7.256;2023-05-10T01:12:43;50.40;;;3.45;;
19569;SDS011;9931;51.458;7.256;2023-05-10T01:15:10;9.80;;;1.02;;
19569;SDS011;9931;51.458;7.256;2023-05-10T01:17:36;16.63;;;1.45;;
19569;SDS011;9931;51.458;7.256;2023-05-10T01:20:02;21.17;;;1.70;;
19569;SDS011;9931;51.458;7.256;2023-05-10T01:30:42;19.35;;;1.55;;
19569;SDS011;9931;51.458;7.256;2023-05-10T01:38:19;79.78;;;5.38;;
19569;SDS011;9931;51.458;7.256;2023-05-10T01:40:52;32.95;;;2.50;;
19569;SDS011;9931;51.458;7.256;2023-05-10T01:43:19;28.55;;;2.25;;
19569;SDS011;9931;51.458;7.256;2023-05-10T01:48:20;21.85;;;1.83;;
19569;SDS011;9931;51.458;7.256;2023-05-10T01:50:47;19.23;;;1.67;;
19569;SDS011;9931;51.458;7.256;2023-05-10T01:53:13;34.92;;;2.67;;
19569;SDS011;9931;51.458;7.256;2023-05-10T01:55:43;19.10;;;1.52;;
19569;SDS011;9931;51.458;7.256;2023-05-10T01:58:13;15.57;;;1.45;;
19569;SDS011;9931;51.458;7.256;2023-05-10T02:00:40;26.08;;;2.15;;
19569;SDS011;9931;51.458;7.256;2023-05-10T02:03:07;20.55;;;1.80;;
19569;SDS011;9931;51.458;7.256;2023-05-10T02:05:33;23.33;;;1.90;;
19569;SDS011;9931;51.458;7.256;2023-05-10T02:07:59;42.45;;;3.08;;
19569;SDS011;9931;51.458;7.256;2023-05-10T02:10:26;58.92;;;4.18;;
19569;SDS011;9931;51.458;7.256;2023-05-10T02:12:52;22.33;;;1.70;;
19569;SDS011;9931;51.458;7.256;2023-05-10T02:15:19;22.38;;;1.83;;
19569;SDS011;9931;51.458;7.256;2023-05-10T02:17:46;21.30;;;1.70;;
19569;SDS011;9931;51.458;7.256;2023-05-10T02:20:11;15.48;;;1.30;;
19569;SDS011;9931;51.458;7.256;2023-05-10T02:22:37;31.38;;;2.38;;
19569;SDS011;9931;51.458;7.256;2023-05-10T02:25:03;16.65;;;1.55;;
19569;SDS011;9931;51.458;7.256;2023-05-10T02:27:29;51.03;;;3.72;;
19569;SDS011;9931;51.458;7.256;2023-05-10T02:29:55;22.80;;;1.75;;
19569;SDS011;9931;51.458;7.256;2023-05-10T02:32:22;48.90;;;3.55;;
19569;SDS011;9931;51.458;7.256;2023-05-10T02:34:47;30.42;;;2.38;;
19569;SDS011;9931;51.458;7.256;2023-05-10T02:37:16;22.60;;;1.83;;
19569;SDS011;9931;51.458;7.256;2023-05-10T02:39:43;14.48;;;1.38;;
19569;SDS011;9931;51.458;7.256;2023-05-10T02:42:14;28.83;;;2.20;;
19569;SDS011;9931;51.458;7.256;2023-05-10T02:44:41;21.90;;;1.77;;
19569;SDS011;9931;51.458;7.256;2023-05-10T02:47:07;23.70;;;1.90;;
19569;SDS011;9931;51.458;7.256;2023-05-10T02:49:32;22.13;;;1.85;;
19569;SDS011;9931;51.458;7.256;2023-05-10T02:51:59;40.28;;;3.03;;
19569;SDS011;9931;51.458;7.256;2023-05-10T02:54:27;39.97;;;2.90;;
19569;SDS011;9931;51.458;7.256;2023-05-10T02:56:55;32.90;;;2.50;;
19569;SDS011;9931;51.458;7.256;2023-05-10T02:59:21;24.25;;;1.98;;
19569;SDS011;9931;51.458;7.256;2023-05-10T03:01:46;14.50;;;1.33;;
19569;SDS011;9931;51.458;7.256;2023-05-10T03:04:12;75.57;;;4.95;;
19569;SDS011;9931;51.458;7.256;2023-05-10T03:06:38;30.27;;;2.20;;
19569;SDS011;9931;51.458;7.256;2023-05-10T03:09:03;43.65;;;3.08;;
19569;SDS011;9931;51.458;7.256;2023-05-10T03:11:37;15.07;;;1.40;;
19569;SDS011;9931;51.458;7.256;2023-05-10T03:16:29;29.95;;;2.25;;
19569;SDS011;9931;51.458;7.256;2023-05-10T03:19:06;19.02;;;1.60;;
19569;SDS011;9931;51.458;7.256;2023-05-10T03:21:33;16.98;;;1.52;;
19569;SDS011;9931;51.458;7.256;2023-05-10T03:24:07;26.40;;;2.08;;
19569;SDS011;9931;51.458;7.256;2023-05-10T03:26:32;45.10;;;3.28;;
19569;SDS011;9931;51.458;7.256;2023-05-10T03:28:58;31.95;;;2.38;;
19569;SDS011;9931;51.458;7.256;2023-05-10T03:31:24;28.77;;;2.25;;
19569;SDS011;9931;51.458;7.256;2023-05-10T03:33:49;29.33;;;2.35;;
19569;SDS011;9931;51.458;7.256;2023-05-10T03:36:15;36.10;;;2.75;;
19569;SDS011;9931;51.458;7.256;2023-05-10T03:38:41;26.80;;;2.05;;
19569;SDS011;9931;51.458;7.256;2023-05-10T03:41:06;18.70;;;1.55;;
19569;SDS011;9931;51.458;7.256;2023-05-10T03:43:31;19.73;;;1.67;;
19569;SDS011;9931;51.458;7.256;2023-05-10T03:45:57;20.05;;;1.63;;
19569;SDS011;9931;51.458;7.256;2023-05-10T03:48:22;47.07;;;3.37;;
19569;SDS011;9931;51.458;7.256;2023-05-10T03:50:47;21.17;;;1.77;;
19569;SDS011;9931;51.458;7.256;2023-05-10T03:53:14;30.67;;;2.38;;
19569;SDS011;9931;51.458;7.256;2023-05-10T03:55:39;19.63;;;1.70;;
19569;SDS011;9931;51.458;7.256;2023-05-10T03:58:04;71.03;;;4.85;;
19569;SDS011;9931;51.458;7.256;2023-05-10T04:00:29;26.13;;;2.15;;
19569;SDS011;9931;51.458;7.256;2023-05-10T04:02:55;17.75;;;1.60;;
19569;SDS011;9931;51.458;7.256;2023-05-10T04:05:21;68.10;;;4.80;;
19569;SDS011;9931;51.458;7.256;2023-05-10T04:07:46;27.40;;;2.35;;
19569;SDS011;9931;51.458;7.256;2023-05-10T04:10:12;26.85;;;2.15;;
19569;SDS011;9931;51.458;7.256;2023-05-10T04:12:37;24.05;;;2.05;;
19569;SDS011;9931;51.458;7.256;2023-05-10T04:15:02;19.48;;;1.70;;
19569;SDS011;9931;51.458;7.256;2023-05-10T04:17:28;27.10;;;2.17;;
19569;SDS011;9931;51.458;7.256;2023-05-10T04:19:53;23.65;;;2.03;;
19569;SDS011;9931;51.458;7.256;2023-05-10T04:22:19;19.63;;;1.73;;
19569;SDS011;9931;51.458;7.256;2023-05-10T04:24:45;22.60;;;1.98;;
19569;SDS011;9931;51.458;7.256;2023-05-10T04:27:10;17.63;;;1.63;;
19569;SDS011;9931;51.458;7.256;2023-05-10T04:29:36;10.60;;;1.00;;
19569;SDS011;9931;51.458;7.256;2023-05-10T04:32:01;18.25;;;1.55;;
19569;SDS011;9931;51.458;7.256;2023-05-10T04:34:27;58.17;;;4.30;;
19569;SDS011;9931;51.458;7.256;2023-05-10T04:36:52;22.88;;;1.95;;
19569;SDS011;9931;51.458;7.256;2023-05-10T04:39:17;11.10;;;1.10;;
19569;SDS011;9931;51.458;7.256;2023-05-10T04:41:43;17.80;;;1.63;;
19569;SDS011;9931;51.458;7.256;2023-05-10T04:44:08;19.15;;;1.67;;
19569;SDS011;9931;51.458;7.256;2023-05-10T04:46:33;13.03;;;1.20;;
19569;SDS011;9931;51.458;7.256;2023-05-10T04:48:58;30.77;;;2.43;;
19569;SDS011;9931;51.458;7.256;2023-05-10T04:51:23;20.88;;;1.88;;
19569;SDS011;9931;51.458;7.256;2023-05-10T04:53:49;34.75;;;2.65;;
19569;SDS011;9931;51.458;7.256;2023-05-10T04:56:14;26.70;;;2.25;;
19569;SDS011;9931;51.458;7.256;2023-05-10T04:58:39;23.55;;;2.03;;
19569;SDS011;9931;51.458;7.256;2023-05-10T05:01:08;18.88;;;1.70;;
19569;SDS011;9931;51.458;7.256;2023-05-10T05:03:34;16.90;;;1.55;;
19569;SDS011;9931;51.458;7.256;2023-05-10T05:05:59;22.88;;;1.85;;
19569;SDS011;9931;51.458;7.256;2023-05-10T05:08:25;14.57;;;1.40;;
19569;SDS011;9931;51.458;7.256;2023-05-10T05:10:50;24.42;;;1.98;;
19569;SDS011;9931;51.458;7.256;2023-05-10T05:13:15;53.45;;;3.88;;
19569;SDS011;9931;51.458;7.256;2023-05-10T05:15:40;18.55;;;1.73;;
19569;SDS011;9931;51.458;7.256;2023-05-10T05:18:05;18.35;;;1.58;;
19569;SDS011;9931;51.458;7.256;2023-05-10T05:20:34;13.05;;;1.23;;
19569;SDS011;9931;51.458;7.256;2023-05-10T05:22:59;25.17;;;2.08;;
19569;SDS011;9931;51.458;7.256;2023-05-10T05:25:25;23.35;;;2.03;;
19569;SDS011;9931;51.458;7.256;2023-05-10T05:27:50;19.17;;;1.73;;
19569;SDS011;9931;51.458;7.256;2023-05-10T05:30:15;17.58;;;1.52;;
19569;SDS011;9931;51.458;7.256;2023-05-10T05:32:40;21.20;;;1.83;;
19569;SDS011;9931;51.458;7.256;2023-05-10T05:35:06;13.32;;;1.27;;
19569;SDS011;9931;51.458;7.256;2023-05-10T05:37:31;17.02;;;1.55;;
19569;SDS011;9931;51.458;7.256;2023-05-10T05:39:56;25.85;;;2.15;;
19569;SDS011;9931;51.458;7.256;2023-05-10T05:42:21;22.20;;;1.90;;
19569;SDS011;9931;51.458;7.256;2023-05-10T05:44:47;14.93;;;1.42;;
19569;SDS011;9931;51.458;7.256;2023-05-10T05:47:12;23.38;;;2.03;;
19569;SDS011;9931;51.458;7.256;2023-05-10T05:49:37;18.90;;;1.67;;
19569;SDS011;9931;51.458;7.256;2023-05-10T05:52:03;23.40;;;1.98;;
19569;SDS011;9931;51.458;7.256;2023-05-10T05:54:29;22.60;;;1.98;;
19569;SDS011;9931;51.458;7.256;2023-05-10T05:56:55;20.40;;;1.83;;
19569;SDS011;9931;51.458;7.256;2023-05-10T05:59:20;19.98;;;1.65;;
19569;SDS011;9931;51.458;7.256;2023-05-10T06:01:45;21.20;;;1.77;;
19569;SDS011;9931;51.458;7.256;2023-05-10T06:04:11;56.10;;;4.05;;
19569;SDS011;9931;51.458;7.256;2023-05-10T06:06:37;11.70;;;1.23;;
19569;SDS011;9931;51.458;7.256;2023-05-10T06:09:02;34.03;;;2.58;;
19569;SDS011;9931;51.458;7.256;2023-05-10T06:11:27;20.95;;;1.83;;
19569;SDS011;9931;51.458;7.256;2023-05-10T06:13:53;22.33;;;1.90;;
19569;SDS011;9931;51.458;7.256;2023-05-10T06:16:18;41.72;;;3.25;;
19569;SDS011;9931;51.458;7.256;2023-05-10T06:18:43;20.70;;;1.83;;
19569;SDS011;9931;51.458;7.256;2023-05-10T06:21:08;15.80;;;1.50;;
19569;SDS011;9931;51.458;7.256;2023-05-10T06:23:34;24.27;;;2.00;;
19569;SDS011;9931;51.458;7.256;2023-05-10T06:25:59;8.63;;;0.90;;
19569;SDS011;9931;51.458;7.256;2023-05-10T06:28:24;35.45;;;2.78;;
19569;SDS011;9931;51.458;7.256;2023-05-10T06:30:49;16.67;;;1.52;;
19569;SDS011;9931;51.458;7.256;2023-05-10T06:33:15;46.00;;;3.38;;
19569;SDS011;9931;51.458;7.256;2023-05-10T06:35:41;17.42;;;1.52;;
19569;SDS011;9931;51.458;7.256;2023-05-10T06:38:06;19.30;;;1.70;;
19569;SDS011;9931;51.458;7.256;2023-05-10T06:40:31;21.98;;;1.95;;
19569;SDS011;9931;51.458;7.256;2023-05-10T06:42:57;18.75;;;1.73;;
19569;SDS011;9931;51.458;7.256;2023-05-10T06:45:23;29.42;;;2.30;;
19569;SDS011;9931;51.458;7.256;2023-05-10T06:47:48;23.00;;;2.00;;
19569;SDS011;9931;51.458;7.256;2023-05-10T06:50:13;20.23;;;1.80;;
19569;SDS011;9931;51.458;7.256;2023-05-10T06:52:38;20.73;;;1.75;;
19569;SDS011;9931;51.458;7.256;2023-05-10T06:55:04;8.25;;;0.85;;
19569;SDS011;9931;51.458;7.256;2023-05-10T06:57:30;18.20;;;1.65;;
19569;SDS011;9931;51.458;7.256;2023-05-10T06:59:55;19.58;;;1.73;;
19569;SDS011;9931;51.458;7.256;2023-05-10T07:02:23;20.17;;;1.70;;
19569;SDS011;9931;51.458;7.256;2023-05-10T07:04:48;29.23;;;2.45;;
19569;SDS011;9931;51.458;7.256;2023-05-10T07:07:14;29.42;;;2.28;;
19569;SDS011;9931;51.458;7.256;2023-05-10T07:09:39;34.85;;;2.75;;
19569;SDS011;9931;51.458;7.256;2023-05-10T07:12:04;51.72;;;3.78;;
19569;SDS011;9931;51.458;7.256;2023-05-10T07:14:29;6.18;;;0.77;;
19569;SDS011;9931;51.458;7.256;2023-05-10T07:16:55;21.48;;;1.88;;
19569;SDS011;9931;51.458;7.256;2023-05-10T07:19:20;19.20;;;1.70;;
19569;SDS011;9931;51.458;7.256;2023-05-10T07:21:45;23.00;;;2.00;;
19569;SDS011;9931;51.458;7.256;2023-05-10T07:24:11;15.43;;;1.40;;
19569;SDS011;9931;51.458;7.256;2023-05-10T07:26:36;24.88;;;2.10;;
19569;SDS011;9931;51.458;7.256;2023-05-10T07:29:01;17.02;;;1.42;;
19569;SDS011;9931;51.458;7.256;2023-05-10T07:31:27;17.42;;;1.52;;
19569;SDS011;9931;51.458;7.256;2023-05-10T07:33:52;21.73;;;1.83;;
19569;SDS011;9931;51.458;7.256;2023-05-10T07:36:18;17.08;;;1.50;;
19569;SDS011;9931;51.458;7.256;2023-05-10T07:38:43;19.00;;;1.67;;
19569;SDS011;9931;51.458;7.256;2023-05-10T07:41:08;15.82;;;1.45;;
19569;SDS011;9931;51.458;7.256;2023-05-10T07:43:33;17.42;;;1.52;;
19569;SDS011;9931;51.458;7.256;2023-05-10T07:45:58;14.02;;;1.33;;
19569;SDS011;9931;51.458;7.256;2023-05-10T07:48:24;11.93;;;1.20;;
19569;SDS011;9931;51.458;7.256;2023-05-10T07:50:50;15.45;;;1.42;;
19569;SDS011;9931;51.458;7.256;2023-05-10T07:53:15;20.95;;;1.88;;
19569;SDS011;9931;51.458;7.256;2023-05-10T07:55:40;20.08;;;1.75;;
19569;SDS011;9931;51.458;7.256;2023-05-10T07:58:05;20.87;;;1.90;;
19569;SDS011;9931;51.458;7.256;2023-05-10T08:00:31;24.05;;;2.05;;
19569;SDS011;9931;51.458;7.256;2023-05-10T08:02:56;5.15;;;0.70;;
19569;SDS011;9931;51.458;7.256;2023-05-10T08:05:21;19.70;;;1.70;;
19569;SDS011;9931;51.458;7.256;2023-05-10T08:07:46;33.05;;;2.55;;
19569;SDS011;9931;51.458;7.256;2023-05-10T08:10:12;18.23;;;1.63;;
19569;SDS011;9931;51.458;7.256;2023-05-10T08:12:37;16.57;;;1.50;;
19569;SDS011;9931;51.458;7.256;2023-05-10T08:15:03;32.28;;;2.58;;
19569;SDS011;9931;51.458;7.256;2023-05-10T08:17:28;19.25;;;1.70;;
19569;SDS011;9931;51.458;7.256;2023-05-10T08:19:53;19.13;;;1.63;;
19569;SDS011;9931;51.458;7.256;2023-05-10T08:22:19;22.20;;;1.90;;
19569;SDS011;9931;51.458;7.256;2023-05-10T08:24:44;9.95;;;1.05;;
19569;SDS011;9931;51.458;7.256;2023-05-10T08:27:10;22.52;;;1.90;;
19569;SDS011;9931;51.458;7.256;2023-05-10T08:29:35;19.65;;;1.75;;
19569;SDS011;9931;51.458;7.256;2023-05-10T08:32:00;15.97;;;1.50;;
19569;SDS011;9931;51.458;7.256;2023-05-10T08:34:28;7.82;;;0.88;;
19569;SDS011;9931;51.458;7.256;2023-05-10T08:36:54;16.45;;;1.50;;
19569;SDS011;9931;51.458;7.256;2023-05-10T08:39:19;19.88;;;1.77;;
19569;SDS011;9931;51.458;7.256;2023-05-10T08:41:44;19.20;;;1.73;;
19569;SDS011;9931;51.458;7.256;2023-05-10T08:44:10;22.02;;;1.95;;
19569;SDS011;9931;51.458;7.256;2023-05-10T08:46:36;24.58;;;2.17;;
19569;SDS011;9931;51.458;7.256;2023-05-10T08:49:04;26.83;;;2.17;;
19569;SDS011;9931;51.458;7.256;2023-05-10T08:51:31;4.47;;;0.75;;
19569;SDS011;9931;51.458;7.256;2023-05-10T08:53:59;14.15;;;1.30;;
19569;SDS011;9931;51.458;7.256;2023-05-10T08:56:25;11.52;;;1.17;;
19569;SDS011;9931;51.458;7.256;2023-05-10T08:58:51;26.30;;;2.25;;
19569;SDS011;9931;51.458;7.256;2023-05-10T09:01:16;18.92;;;1.67;;
19569;SDS011;9931;51.458;7.256;2023-05-10T09:03:42;14.85;;;1.45;;
19569;SDS011;9931;51.458;7.256;2023-05-10T09:06:07;13.57;;;1.38;;
19569;SDS011;9931;51.458;7.256;2023-05-10T09:08:33;20.63;;;1.80;;
19569;SDS011;9931;51.458;7.256;2023-05-10T09:10:58;19.00;;;1.75;;
19569;SDS011;9931;51.458;7.256;2023-05-10T09:13:25;25.45;;;2.10;;
19569;SDS011;9931;51.458;7.256;2023-05-10T09:15:51;18.60;;;1.70;;
19569;SDS011;9931;51.458;7.256;2023-05-10T09:18:16;19.67;;;1.83;;
19569;SDS011;9931;51.458;7.256;2023-05-10T09:20:41;24.13;;;2.03;;
19569;SDS011;9931;51.458;7.256;2023-05-10T09:23:07;22.58;;;2.05;;
19569;SDS011;9931;51.458;7.256;2023-05-10T09:25:32;10.00;;;1.00;;
19569;SDS011;9931;51.458;7.256;2023-05-10T09:28:02;20.90;;;1.77;;
19569;SDS011;9931;51.458;7.256;2023-05-10T09:30:28;20.67;;;1.88;;
19569;SDS011;9931;51.458;7.256;2023-05-10T09:32:53;26.88;;;2.20;;
19569;SDS011;9931;51.458;7.256;2023-05-10T09:35:21;20.17;;;1.77;;
19569;SDS011;9931;51.458;7.256;2023-05-10T09:37:49;22.30;;;1.90;;
19569;SDS011;9931;51.458;7.256;2023-05-10T09:40:15;35.17;;;2.75;;
19569;SDS011;9931;51.458;7.256;2023-05-10T09:45:35;22.92;;;1.95;;
19569;SDS011;9931;51.458;7.256;2023-05-10T09:48:01;17.75;;;1.55;;
19569;SDS011;9931;51.458;7.256;2023-05-10T09:50:27;19.80;;;1.67;;
19569;SDS011;9931;51.458;7.256;2023-05-10T09:52:54;19.13;;;1.63;;
19569;SDS011;9931;51.458;7.256;2023-05-10T09:55:21;49.70;;;3.60;;
19569;SDS011;9931;51.458;7.256;2023-05-10T09:57:47;19.63;;;2.25;;
19569;SDS011;9931;51.458;7.256;2023-05-10T10:00:17;12.80;;;1.80;;
19569;SDS011;9931;51.458;7.256;2023-05-10T10:02:42;12.30;;;2.05;;
19569;SDS011;9931;51.458;7.256;2023-05-10T10:05:09;21.35;;;2.33;;
19569;SDS011;9931;51.458;7.256;2023-05-10T10:07:36;25.02;;;2.58;;
19569;SDS011;9931;51.458;7.256;2023-05-10T10:10:01;16.90;;;2.00;;
19569;SDS011;9931;51.458;7.256;2023-05-10T10:12:27;24.55;;;2.15;;
19569;SDS011;9931;51.458;7.256;2023-05-10T10:14:53;10.43;;;1.27;;
19569;SDS011;9931;51.458;7.256;2023-05-10T10:17:18;21.17;;;2.13;;
19569;SDS011;9931;51.458;7.256;2023-05-10T10:19:44;19.75;;;2.13;;
19569;SDS011;9931;51.458;7.256;2023-05-10T10:22:10;14.77;;;2.42;;
19569;SDS011;9931;51.458;7.256;2023-05-10T10:24:37;22.00;;;2.83;;
19569;SDS011;9931;51.458;7.256;2023-05-10T10:27:11;18.17;;;2.63;;
19569;SDS011;9931;51.458;7.256;2023-05-10T10:32:09;21.85;;;2.33;;
19569;SDS011;9931;51.458;7.256;2023-05-10T10:34:38;20.73;;;2.65;;
19569;SDS011;9931;51.458;7.256;2023-05-10T10:37:04;24.48;;;3.35;;
19569;SDS011;9931;51.458;7.256;2023-05-10T10:39:29;24.45;;;2.80;;
19569;SDS011;9931;51.458;7.256;2023-05-10T10:41:55;6.68;;;1.77;;
19569;SDS011;9931;51.458;7.256;2023-05-10T10:49:27;21.73;;;2.63;;
19569;SDS011;9931;51.458;7.256;2023-05-10T10:52:12;20.08;;;2.72;;
19569;SDS011;9931;51.458;7.256;2023-05-10T10:54:37;37.92;;;3.80;;
19569;SDS011;9931;51.458;7.256;2023-05-10T10:57:13;34.42;;;3.42;;
19569;SDS011;9931;51.458;7.256;2023-05-10T10:59:44;6.07;;;1.38;;
19569;SDS011;9931;51.458;7.256;2023-05-10T11:02:10;17.85;;;2.30;;
19569;SDS011;9931;51.458;7.256;2023-05-10T11:04:55;18.13;;;2.00;;
19569;SDS011;9931;51.458;7.256;2023-05-10T11:07:21;28.95;;;2.90;;
19569;SDS011;9931;51.458;7.256;2023-05-10T11:09:49;17.50;;;2.00;;
19569;SDS011;9931;51.458;7.256;2023-05-10T11:12:14;13.70;;;1.60;;
19569;SDS011;9931;51.458;7.256;2023-05-10T11:14:39;15.13;;;1.63;;
19569;SDS011;9931;51.458;7.256;2023-05-10T11:17:26;20.55;;;2.10;;
19569;SDS011;9931;51.458;7.256;2023-05-10T11:22:50;21.90;;;1.98;;
19569;SDS011;9931;51.458;7.256;2023-05-10T11:25:16;14.98;;;1.73;;
19569;SDS011;9931;51.458;7.256;2023-05-10T11:27:41;20.77;;;2.22;;
19569;SDS011;9931;51.458;7.256;2023-05-10T11:30:07;19.80;;;2.10;;
19569;SDS011;9931;51.458;7.256;2023-05-10T11:32:32;16.77;;;1.83;;
19569;SDS011;9931;51.458;7.256;2023-05-10T11:34:58;23.77;;;2.22;;
19569;SDS011;9931;51.458;7.256;2023-05-10T11:37:23;40.63;;;3.28;;
19569;SDS011;9931;51.458;7.256;2023-05-10T11:39:48;25.75;;;2.28;;
19569;SDS011;9931;51.458;7.256;2023-05-10T11:42:13;28.13;;;2.43;;
19569;SDS011;9931;51.458;7.256;2023-05-10T11:44:38;17.23;;;1.83;;
19569;SDS011;9931;51.458;7.256;2023-05-10T11:47:04;19.50;;;1.90;;
19569;SDS011;9931;51.458;7.256;2023-05-10T11:49:30;4.93;;;0.90;;
19569;SDS011;9931;51.458;7.256;2023-05-10T11:52:07;27.13;;;2.22;;
19569;SDS011;9931;51.458;7.256;2023-05-10T11:54:33;27.77;;;2.35;;
19569;SDS011;9931;51.458;7.256;2023-05-10T11:56:59;28.05;;;2.55;;
19569;SDS011;9931;51.458;7.256;2023-05-10T11:59:25;6.55;;;1.10;;
19569;SDS011;9931;51.458;7.256;2023-05-10T12:01:50;21.65;;;2.08;;
19569;SDS011;9931;51.458;7.256;2023-05-10T12:04:15;22.48;;;2.20;;
19569;SDS011;9931;51.458;7.256;2023-05-10T12:06:41;14.05;;;1.70;;
19569;SDS011;9931;51.458;7.256;2023-05-10T12:09:06;45.83;;;3.63;;
19569;SDS011;9931;51.458;7.256;2023-05-10T12:11:35;22.38;;;2.33;;
19569;SDS011;9931;51.458;7.256;2023-05-10T12:14:03;89.28;;;6.38;;
19569;SDS011;9931;51.458;7.256;2023-05-10T12:16:29;26.20;;;2.40;;
19569;SDS011;9931;51.458;7.256;2023-05-10T12:18:58;27.02;;;2.40;;
19569;SDS011;9931;51.458;7.256;2023-05-10T12:21:24;19.60;;;1.95;;
19569;SDS011;9931;51.458;7.256;2023-05-10T12:23:50;40.88;;;3.35;;
19569;SDS011;9931;51.458;7.256;2023-05-10T12:26:15;20.50;;;2.05;;
19569;SDS011;9931;51.458;7.256;2023-05-10T12:28:41;21.92;;;2.17;;
19569;SDS011;9931;51.458;7.256;2023-05-10T12:31:06;20.95;;;2.35;;
19569;SDS011;9931;51.458;7.256;2023-05-10T12:33:35;22.88;;;3.40;;
19569;SDS011;9931;51.458;7.256;2023-05-10T12:36:02;19.40;;;3.28;;
19569;SDS011;9931;51.458;7.256;2023-05-10T12:38:37;24.95;;;4.43;;
19569;SDS011;9931;51.458;7.256;2023-05-10T12:41:11;9.23;;;4.10;;
19569;SDS011;9931;51.458;7.256;2023-05-10T12:43:36;21.52;;;5.65;;
19569;SDS011;9931;51.458;7.256;2023-05-10T12:46:05;25.35;;;5.45;;
19569;SDS011;9931;51.458;7.256;2023-05-10T12:48:31;14.27;;;4.65;;
19569;SDS011;9931;51.458;7.256;2023-05-10T12:50:56;25.05;;;5.80;;
19569;SDS011;9931;51.458;7.256;2023-05-10T12:53:21;34.30;;;6.88;;
19569;SDS011;9931;51.458;7.256;2023-05-10T12:55:47;19.25;;;4.20;;
19569;SDS011;9931;51.458;7.256;2023-05-10T12:58:12;17.20;;;4.85;;
19569;SDS011;9931;51.458;7.256;2023-05-10T13:00:37;17.63;;;4.22;;
19569;SDS011;9931;51.458;7.256;2023-05-10T13:03:03;28.20;;;6.13;;
19569;SDS011;9931;51.458;7.256;2023-05-10T13:05:28;39.15;;;6.78;;
19569;SDS011;9931;51.458;7.256;2023-05-10T13:07:53;26.97;;;7.27;;
19569;SDS011;9931;51.458;7.256;2023-05-10T13:10:19;19.33;;;7.22;;
19569;SDS011;9931;51.458;7.256;2023-05-10T13:12:44;21.45;;;7.65;;
19569;SDS011;9931;51.458;7.256;2023-05-10T13:15:09;19.00;;;8.40;;
19569;SDS011;9931;51.458;7.256;2023-05-10T13:17:35;10.02;;;7.85;;
19569;SDS011;9931;51.458;7.256;2023-05-10T13:20:00;29.90;;;7.75;;
19569;SDS011;9931;51.458;7.256;2023-05-10T13:22:25;22.75;;;6.63;;
19569;SDS011;9931;51.458;7.256;2023-05-10T13:24:50;24.33;;;7.05;;
19569;SDS011;9931;51.458;7.256;2023-05-10T13:27:16;20.23;;;5.87;;
19569;SDS011;9931;51.458;7.256;2023-05-10T13:29:41;28.13;;;6.03;;
19569;SDS011;9931;51.458;7.256;2023-05-10T13:32:06;22.43;;;4.87;;
19569;SDS011;9931;51.458;7.256;2023-05-10T13:34:31;22.38;;;4.78;;
19569;SDS011;9931;51.458;7.256;2023-05-10T13:36:56;26.70;;;4.47;;
19569;SDS011;9931;51.458;7.256;2023-05-10T13:39:22;12.75;;;4.63;;
19569;SDS011;9931;51.458;7.256;2023-05-10T13:41:47;18.88;;;5.68;;
19569;SDS011;9931;51.458;7.256;2023-05-10T13:44:13;22.20;;;7.60;;
19569;SDS011;9931;51.458;7.256;2023-05-10T13:46:39;12.13;;;6.18;;
19569;SDS011;9931;51.458;7.256;2023-05-10T13:49:04;34.35;;;8.25;;
19569;SDS011;9931;51.458;7.256;2023-05-10T13:51:30;23.88;;;7.63;;
19569;SDS011;9931;51.458;7.256;2023-05-10T13:53:56;16.73;;;9.18;;
19569;SDS011;9931;51.458;7.256;2023-05-10T13:56:21;22.95;;;8.00;;
19569;SDS011;9931;51.458;7.256;2023-05-10T13:58:47;12.65;;;7.97;;
19569;SDS011;9931;51.458;7.256;2023-05-10T14:01:12;22.77;;;8.40;;
19569;SDS011;9931;51.458;7.256;2023-05-10T14:03:37;24.65;;;7.75;;
19569;SDS011;9931;51.458;7.256;2023-05-10T14:06:05;35.35;;;7.53;;
19569;SDS011;9931;51.458;7.256;2023-05-10T14:08:32;22.48;;;5.88;;
19569;SDS011;9931;51.458;7.256;2023-05-10T14:10:57;44.22;;;8.73;;
19569;SDS011;9931;51.458;7.256;2023-05-10T14:13:22;20.58;;;6.38;;
19569;SDS011;9931;51.458;7.256;2023-05-10T14:15:48;23.55;;;6.43;;
19569;SDS011;9931;51.458;7.256;2023-05-10T14:18:13;14.40;;;7.03;;
19569;SDS011;9931;51.458;7.256;2023-05-10T14:20:39;10.10;;;5.13;;
19569;SDS011;9931;51.458;7.256;2023-05-10T14:23:04;35.80;;;6.90;;
19569;SDS011;9931;51.458;7.256;2023-05-10T14:25:30;19.88;;;5.90;;
19569;SDS011;9931;51.458;7.256;2023-05-10T14:27:55;30.38;;;6.70;;
19569;SDS011;9931;51.458;7.256;2023-05-10T14:30:20;20.75;;;7.85;;
19569;SDS011;9931;51.458;7.256;2023-05-10T14:32:46;18.92;;;7.43;;
19569;SDS011;9931;51.458;7.256;2023-05-10T14:35:11;15.57;;;5.47;;
19569;SDS011;9931;51.458;7.256;2023-05-10T14:37:37;21.17;;;6.13;;
19569;SDS011;9931;51.458;7.256;2023-05-10T14:40:03;22.52;;;6.53;;
19569;SDS011;9931;51.458;7.256;2023-05-10T14:42:29;22.83;;;7.00;;
19569;SDS011;9931;51.458;7.256;2023-05-10T14:44:54;23.17;;;5.83;;
19569;SDS011;9931;51.458;7.256;2023-05-10T14:47:19;26.97;;;5.00;;
19569;SDS011;9931;51.458;7.256;2023-05-10T14:49:44;41.60;;;7.15;;
19569;SDS011;9931;51.458;7.256;2023-05-10T14:52:09;15.43;;;5.60;;
19569;SDS011;9931;51.458;7.256;2023-05-10T14:54:37;24.33;;;5.90;;
19569;SDS011;9931;51.458;7.256;2023-05-10T14:57:02;23.40;;;5.83;;
19569;SDS011;9931;51.458;7.256;2023-05-10T14:59:27;27.40;;;6.15;;
19569;SDS011;9931;51.458;7.256;2023-05-10T15:01:52;32.17;;;6.67;;
19569;SDS011;9931;51.458;7.256;2023-05-10T15:04:17;17.00;;;5.80;;
19569;SDS011;9931;51.458;7.256;2023-05-10T15:06:42;59.92;;;8.85;;
19569;SDS011;9931;51.458;7.256;2023-05-10T15:09:08;48.17;;;6.95;;
19569;SDS011;9931;51.458;7.256;2023-05-10T15:11:33;25.08;;;5.05;;
19569;SDS011;9931;51.458;7.256;2023-05-10T15:13:59;13.25;;;4.65;;